createdAt,value
2019-05-26T00:00:02.542Z,72.02
2019-05-26T00:01:02.568Z,72.12
2019-05-26T00:02:02.601Z,72.69
2019-05-26T00:03:02.616Z,72.41
2019-05-26T00:04:02.638Z,72.88
2019-05-26T00:05:02.678Z,72.60
2019-05-26T00:06:02.688Z,72.88
2019-05-26T00:07:02.711Z,73.17
2019-05-26T00:08:02.747Z,72.88
2019-05-26T00:09:02.758Z,73.17
2019-05-26T00:10:02.900Z,72.88
2019-05-26T00:11:02.810Z,73.17
2019-05-26T00:12:02.834Z,73.65
2019-05-26T00:13:02.860Z,72.79
2019-05-26T00:14:02.886Z,72.79
2019-05-26T00:15:02.908Z,73.27
2019-05-26T00:16:02.939Z,73.46
2019-05-26T00:17:02.964Z,73.27
2019-05-26T00:18:02.990Z,73.08
2019-05-26T00:19:03.015Z,73.75
2019-05-26T00:20:03.038Z,73.27
2019-05-26T00:21:03.072Z,73.46
2019-05-26T00:22:03.085Z,73.65
2019-05-26T00:23:03.107Z,73.36
2019-05-26T00:24:03.134Z,73.75
2019-05-26T00:25:03.159Z,73.90
2019-05-26T00:26:03.174Z,74.09
2019-05-26T00:27:03.214Z,73.61
2019-05-26T00:28:03.237Z,74.04
2019-05-26T00:29:03.248Z,73.90
2019-05-26T00:30:03.280Z,74.28
2019-05-26T00:31:03.361Z,73.80
2019-05-26T00:32:03.336Z,74.09
2019-05-26T00:33:03.363Z,73.61
2019-05-26T00:34:03.379Z,73.99
2019-05-26T00:35:03.402Z,74.19
2019-05-26T00:36:03.428Z,73.90
2019-05-26T00:37:03.463Z,73.90
2019-05-26T00:38:03.475Z,74.38
2019-05-26T00:39:03.512Z,74.57
2019-05-26T00:40:03.521Z,74.66
2019-05-26T00:41:03.545Z,74.85
2019-05-26T00:42:03.575Z,74.85
2019-05-26T00:43:03.599Z,75.71
2019-05-26T00:44:03.691Z,74.95
2019-05-26T00:45:03.651Z,74.95
2019-05-26T00:46:03.683Z,75.24
2019-05-26T00:47:03.696Z,74.85
2019-05-26T00:48:03.723Z,75.34
2019-05-26T00:49:03.745Z,75.62
2019-05-26T00:50:03.763Z,75.43
2019-05-26T00:51:03.788Z,75.71
2019-05-26T00:52:03.941Z,75.71
2019-05-26T00:53:03.838Z,75.81
2019-05-26T00:54:03.864Z,75.71
2019-05-26T00:55:03.896Z,76.39
2019-05-26T00:56:03.915Z,75.71
2019-05-26T00:57:03.939Z,76.10
2019-05-26T00:58:03.965Z,76.10
2019-05-26T00:59:03.980Z,76.77
2019-05-26T01:00:04.007Z,76.86
2019-05-26T01:01:04.038Z,77.34
2019-05-26T01:02:04.062Z,77.15
2019-05-26T01:03:04.082Z,76.29
2019-05-26T01:04:04.126Z,75.81
2019-05-26T01:05:04.130Z,76.29
2019-05-26T01:06:04.158Z,77.09
2019-05-26T01:07:04.186Z,76.81
2019-05-26T01:08:06.669Z,76.23
2019-05-26T01:09:04.253Z,76.62
2019-05-26T01:10:04.261Z,75.37
2019-05-26T01:11:04.280Z,75.71
2019-05-26T01:12:04.303Z,76.20
2019-05-26T01:13:04.332Z,76.29
2019-05-26T01:14:04.351Z,76.10
2019-05-26T01:15:04.375Z,77.34
2019-05-26T01:16:04.412Z,77.63
2019-05-26T01:17:04.419Z,77.34
2019-05-26T01:18:04.449Z,78.20
2019-05-26T01:19:04.475Z,77.82
2019-05-26T01:20:04.548Z,77.82
2019-05-26T01:21:04.538Z,78.16
2019-05-26T01:22:04.548Z,78.45
2019-05-26T01:23:04.588Z,78.64
2019-05-26T01:24:04.598Z,78.36
2019-05-26T01:25:04.623Z,79.02
2019-05-26T01:26:04.641Z,79.50
2019-05-26T01:27:04.668Z,78.93
2019-05-26T01:28:04.708Z,78.45
2019-05-26T01:29:04.716Z,78.74
2019-05-26T01:30:04.742Z,78.64
2019-05-26T01:31:04.776Z,79.12
2019-05-26T01:32:04.789Z,79.98
2019-05-26T01:33:04.811Z,78.93
2019-05-26T01:34:04.849Z,78.93
2019-05-26T01:35:04.859Z,78.55
2019-05-26T01:36:04.891Z,78.16
2019-05-26T01:37:04.918Z,78.36
2019-05-26T01:38:04.933Z,78.97
2019-05-26T01:39:04.958Z,78.39
2019-05-26T01:40:04.982Z,78.01
2019-05-26T01:41:05.005Z,77.92
2019-05-26T01:42:05.031Z,77.82
2019-05-26T01:43:05.056Z,78.30
2019-05-26T01:44:05.088Z,77.63
2019-05-26T01:45:05.118Z,77.53
2019-05-26T01:46:05.132Z,77.53
2019-05-26T01:47:05.158Z,77.34
2019-05-26T01:48:05.183Z,77.67
2019-05-26T01:49:05.212Z,77.09
2019-05-26T01:50:05.237Z,77.28
2019-05-26T01:51:05.263Z,77.25
2019-05-26T01:52:05.279Z,77.09
2019-05-26T01:53:05.302Z,76.29
2019-05-26T01:54:05.322Z,76.29
2019-05-26T01:55:05.355Z,77.06
2019-05-26T01:56:05.372Z,77.34
2019-05-26T01:57:05.412Z,77.34
2019-05-26T01:58:05.427Z,77.25
2019-05-26T01:59:05.443Z,78.01
2019-05-26T02:00:05.472Z,77.63
2019-05-26T02:01:05.500Z,78.01
2019-05-26T02:02:05.518Z,77.92
2019-05-26T02:03:05.550Z,78.20
2019-05-26T02:04:05.594Z,77.53
2019-05-26T02:05:05.592Z,78.01
2019-05-26T02:06:05.616Z,78.30
2019-05-26T02:07:05.652Z,78.58
2019-05-26T02:08:05.666Z,78.68
2019-05-26T02:09:05.700Z,78.49
2019-05-26T02:10:05.718Z,78.87
2019-05-26T02:11:05.738Z,78.78
2019-05-26T02:12:05.776Z,79.25
2019-05-26T02:13:05.796Z,78.39
2019-05-26T02:14:05.812Z,78.68
2019-05-26T02:15:05.850Z,78.39
2019-05-26T02:16:05.879Z,78.78
2019-05-26T02:17:05.914Z,78.78
2019-05-26T02:18:05.925Z,78.64
2019-05-26T02:19:05.936Z,79.60
2019-05-26T02:20:05.958Z,79.69
2019-05-26T02:21:06.107Z,80.46
2019-05-26T02:22:06.025Z,80.55
2019-05-26T02:23:06.032Z,80.74
2019-05-26T02:24:06.092Z,80.74
2019-05-26T02:25:06.095Z,81.27
2019-05-26T02:26:06.131Z,81.18
2019-05-26T02:27:06.140Z,81.66
2019-05-26T02:28:06.155Z,81.76
2019-05-26T02:29:06.188Z,81.66
2019-05-26T02:30:06.203Z,82.32
2019-05-26T02:31:06.226Z,82.14
2019-05-26T02:32:06.250Z,82.23
2019-05-26T02:33:06.277Z,82.81
2019-05-26T02:34:06.312Z,83.00
2019-05-26T02:35:06.322Z,83.28
2019-05-26T02:36:06.362Z,83.38
2019-05-26T02:37:06.376Z,83.67
2019-05-26T02:38:06.401Z,83.47
2019-05-26T02:39:06.429Z,83.18
2019-05-26T02:40:06.440Z,83.09
2019-05-26T02:41:06.466Z,83.57
2019-05-26T02:42:06.494Z,83.57
2019-05-26T02:43:06.517Z,82.81
2019-05-26T02:44:06.561Z,81.66
2019-05-26T02:45:06.569Z,82.32
2019-05-26T02:46:06.590Z,82.32
2019-05-26T02:47:06.612Z,83.09
2019-05-26T02:48:06.639Z,83.62
2019-05-26T02:49:06.664Z,83.76
2019-05-26T02:50:06.689Z,83.76
2019-05-26T02:51:06.707Z,83.18
2019-05-26T02:52:06.744Z,82.95
2019-05-26T02:53:06.757Z,82.90
2019-05-26T02:54:06.822Z,83.76
2019-05-26T02:55:06.809Z,83.00
2019-05-26T02:56:06.829Z,82.46
2019-05-26T02:57:06.855Z,81.70
2019-05-26T02:58:06.880Z,81.99
2019-05-26T02:59:06.902Z,81.03
2019-05-26T03:00:06.943Z,81.70
2019-05-26T03:01:06.950Z,80.84
2019-05-26T03:02:06.984Z,80.55
2019-05-26T03:03:07.002Z,80.79
2019-05-26T03:04:07.028Z,80.55
2019-05-26T03:05:07.049Z,81.60
2019-05-26T03:06:07.074Z,80.99
2019-05-26T03:07:07.100Z,82.04
2019-05-26T03:08:07.120Z,82.14
2019-05-26T03:09:21.847Z,82.52
2019-05-26T03:10:07.174Z,83.09
2019-05-26T03:11:07.192Z,83.05
2019-05-26T03:12:07.216Z,82.95
2019-05-26T03:13:07.246Z,83.34
2019-05-26T03:14:07.283Z,83.81
2019-05-26T03:15:07.289Z,83.34
2019-05-26T03:16:07.321Z,83.34
2019-05-26T03:17:07.335Z,84.29
2019-05-26T03:18:07.366Z,84.29
2019-05-26T03:19:07.403Z,84.00
2019-05-26T03:20:07.412Z,83.72
2019-05-26T03:21:07.437Z,83.43
2019-05-26T03:22:07.463Z,83.81
2019-05-26T03:23:07.484Z,83.62
2019-05-26T03:24:07.507Z,83.72
2019-05-26T03:25:07.538Z,84.39
2019-05-26T03:26:07.562Z,84.48
2019-05-26T03:27:07.582Z,84.20
2019-05-26T03:28:07.637Z,83.53
2019-05-26T03:29:07.691Z,84.20
2019-05-26T03:30:07.653Z,83.91
2019-05-26T03:31:07.690Z,84.20
2019-05-26T03:32:07.712Z,83.81
2019-05-26T03:33:07.724Z,84.00
2019-05-26T03:34:07.946Z,84.29
2019-05-26T03:35:07.769Z,84.58
2019-05-26T03:36:10.513Z,84.86
2019-05-26T03:37:07.830Z,84.29
2019-05-26T03:38:07.923Z,83.91
2019-05-26T03:39:07.892Z,83.81
2019-05-26T03:40:07.903Z,83.87
2019-05-26T03:41:07.915Z,84.16
2019-05-26T03:42:07.946Z,83.96
2019-05-26T03:43:07.964Z,84.10
2019-05-26T03:44:07.991Z,83.53
2019-05-26T03:45:08.015Z,83.62
2019-05-26T03:46:08.037Z,83.53
2019-05-26T03:47:08.059Z,83.24
2019-05-26T03:48:08.089Z,83.14
2019-05-26T03:49:08.110Z,83.39
2019-05-26T03:50:08.131Z,82.86
2019-05-26T03:51:08.148Z,83.77
2019-05-26T03:52:08.181Z,82.95
2019-05-26T03:53:08.203Z,82.95
2019-05-26T03:54:08.231Z,82.86
2019-05-26T03:55:08.256Z,82.95
2019-05-26T03:56:08.273Z,82.82
2019-05-26T03:57:08.293Z,83.01
2019-05-26T03:58:08.330Z,83.43
2019-05-26T03:59:08.346Z,83.05
2019-05-26T04:00:08.367Z,82.67
2019-05-26T04:01:08.390Z,82.53
2019-05-26T04:02:08.415Z,83.01
2019-05-26T04:03:08.438Z,83.05
2019-05-26T04:04:08.467Z,83.14
2019-05-26T04:05:08.490Z,83.05
2019-05-26T04:06:08.505Z,82.38
2019-05-26T04:07:08.533Z,82.38
2019-05-26T04:08:08.563Z,82.38
2019-05-26T04:09:08.578Z,82.38
2019-05-26T04:10:08.608Z,83.05
2019-05-26T04:11:08.658Z,83.14
2019-05-26T04:12:08.653Z,83.14
2019-05-26T04:13:08.678Z,82.76
2019-05-26T04:14:08.714Z,82.38
2019-05-26T04:15:08.724Z,82.38
2019-05-26T04:16:08.862Z,82.57
2019-05-26T04:17:08.775Z,81.81
2019-05-26T04:18:08.802Z,82.09
2019-05-26T04:19:08.826Z,81.43
2019-05-26T04:20:08.846Z,81.52
2019-05-26T04:21:08.871Z,81.81
2019-05-26T04:22:08.892Z,81.71
2019-05-26T04:23:08.917Z,81.81
2019-05-26T04:24:08.939Z,82.19
2019-05-26T04:25:08.973Z,82.09
2019-05-26T04:26:09.001Z,81.81
2019-05-26T04:27:09.010Z,81.90
2019-05-26T04:28:09.035Z,82.38
2019-05-26T04:29:09.063Z,82.29
2019-05-26T04:30:09.080Z,82.48
2019-05-26T04:31:09.194Z,81.62
2019-05-26T04:32:09.151Z,81.52
2019-05-26T04:33:09.162Z,82.19
2019-05-26T04:34:09.177Z,82.48
2019-05-26T04:35:09.205Z,82.48
2019-05-26T04:36:09.231Z,82.48
2019-05-26T04:37:09.247Z,82.29
2019-05-26T04:38:09.274Z,82.19
2019-05-26T04:39:09.305Z,82.57
2019-05-26T04:40:25.753Z,82.86
2019-05-26T04:41:09.350Z,82.57
2019-05-26T04:42:09.375Z,82.76
2019-05-26T04:43:14.434Z,83.05
2019-05-26T04:44:09.417Z,82.95
2019-05-26T04:45:09.445Z,82.95
2019-05-26T04:46:09.463Z,82.57
2019-05-26T04:47:09.488Z,82.38
2019-05-26T04:48:09.516Z,82.57
2019-05-26T04:49:09.531Z,82.19
2019-05-26T04:50:09.566Z,82.19
2019-05-26T04:51:09.584Z,83.05
2019-05-26T04:52:09.609Z,83.05
2019-05-26T04:53:09.638Z,82.95
2019-05-26T04:54:09.652Z,83.05
2019-05-26T04:55:09.678Z,82.86
2019-05-26T04:56:09.705Z,82.95
2019-05-26T04:57:09.727Z,81.66
2019-05-26T04:58:09.754Z,82.42
2019-05-26T04:59:09.779Z,82.61
2019-05-26T05:00:09.800Z,82.23
2019-05-26T05:01:09.822Z,82.76
2019-05-26T05:02:09.852Z,83.24
2019-05-26T05:03:09.880Z,82.76
2019-05-26T05:04:09.899Z,83.18
2019-05-26T05:05:09.917Z,82.76
2019-05-26T05:06:09.951Z,82.90
2019-05-26T05:07:09.963Z,82.52
2019-05-26T05:08:10.032Z,82.32
2019-05-26T05:09:10.019Z,83.00
2019-05-26T05:10:10.035Z,82.61
2019-05-26T05:11:10.055Z,82.90
2019-05-26T05:12:10.093Z,82.81
2019-05-26T05:13:10.105Z,82.81
2019-05-26T05:14:10.127Z,82.90
2019-05-26T05:15:10.150Z,82.52
2019-05-26T05:16:10.193Z,83.14
2019-05-26T05:17:10.199Z,83.18
2019-05-26T05:18:10.227Z,82.71
2019-05-26T05:19:10.255Z,82.14
2019-05-26T05:20:10.272Z,81.76
2019-05-26T05:21:10.295Z,82.52
2019-05-26T05:22:10.327Z,82.14
2019-05-26T05:23:10.343Z,83.00
2019-05-26T05:24:10.373Z,82.81
2019-05-26T05:25:14.920Z,82.71
2019-05-26T05:26:10.413Z,82.90
2019-05-26T05:27:10.440Z,83.09
2019-05-26T05:28:10.471Z,82.14
2019-05-26T05:29:10.487Z,82.71
2019-05-26T05:30:10.514Z,83.09
2019-05-26T05:31:10.548Z,82.81
2019-05-26T05:32:10.558Z,82.32
2019-05-26T05:33:10.587Z,82.04
2019-05-26T05:34:10.609Z,81.89
2019-05-26T05:35:10.633Z,81.79
2019-05-26T05:36:10.655Z,81.22
2019-05-26T05:37:10.682Z,81.22
2019-05-26T05:38:10.705Z,81.79
2019-05-26T05:39:10.754Z,81.79
2019-05-26T05:40:10.769Z,81.32
2019-05-26T05:41:10.771Z,81.22
2019-05-26T05:42:10.797Z,80.99
2019-05-26T05:43:10.836Z,81.03
2019-05-26T05:44:10.852Z,80.84
2019-05-26T05:45:10.881Z,81.41
2019-05-26T05:46:10.903Z,81.51
2019-05-26T05:47:10.920Z,81.32
2019-05-26T05:48:10.944Z,81.70
2019-05-26T05:49:10.975Z,81.03
2019-05-26T05:50:10.991Z,80.74
2019-05-26T05:51:11.016Z,81.22
2019-05-26T05:52:11.051Z,80.84
2019-05-26T05:53:11.063Z,81.41
2019-05-26T05:54:11.083Z,81.22
2019-05-26T05:55:11.123Z,81.22
2019-05-26T05:56:11.139Z,81.13
2019-05-26T05:57:11.172Z,81.13
2019-05-26T05:58:11.207Z,80.93
2019-05-26T05:59:11.206Z,80.27
2019-05-26T06:00:11.227Z,80.36
2019-05-26T06:01:11.252Z,80.55
2019-05-26T06:02:11.388Z,80.79
2019-05-26T06:03:11.338Z,80.50
2019-05-26T06:04:11.327Z,80.50
2019-05-26T06:05:11.361Z,80.21
2019-05-26T06:06:11.383Z,80.02
2019-05-26T06:07:11.414Z,80.02
2019-05-26T06:08:11.443Z,79.83
2019-05-26T06:09:11.445Z,80.02
2019-05-26T06:10:11.470Z,80.11
2019-05-26T06:11:16.318Z,79.44
2019-05-26T06:12:11.515Z,79.93
2019-05-26T06:13:11.553Z,79.06
2019-05-26T06:14:11.572Z,78.39
2019-05-26T06:15:12.200Z,77.92
2019-05-26T06:16:11.616Z,78.34
2019-05-26T06:17:11.640Z,78.81
2019-05-26T06:18:11.662Z,78.81
2019-05-26T06:19:11.688Z,78.05
2019-05-26T06:20:11.715Z,78.20
2019-05-26T06:21:11.734Z,77.76
2019-05-26T06:22:11.780Z,77.76
2019-05-26T06:23:11.789Z,78.24
2019-05-26T06:24:11.805Z,78.72
2019-05-26T06:25:11.832Z,77.67
2019-05-26T06:26:11.858Z,77.76
2019-05-26T06:27:11.881Z,77.28
2019-05-26T06:28:11.929Z,77.67
2019-05-26T06:29:12.082Z,77.48
2019-05-26T06:30:11.958Z,77.28
2019-05-26T06:31:11.986Z,77.28
2019-05-26T06:32:12.137Z,77.00
2019-05-26T06:33:12.029Z,77.38
2019-05-26T06:34:12.052Z,77.38
2019-05-26T06:35:12.078Z,77.00
2019-05-26T06:36:12.097Z,77.00
2019-05-26T06:37:12.130Z,77.28
2019-05-26T06:38:12.157Z,76.71
2019-05-26T06:39:12.209Z,77.28
2019-05-26T06:40:12.198Z,77.38
2019-05-26T06:41:12.240Z,77.38
2019-05-26T06:42:13.318Z,77.70
2019-05-26T06:43:12.268Z,77.19
2019-05-26T06:44:12.298Z,76.42
2019-05-26T06:45:12.317Z,76.33
2019-05-26T06:46:12.357Z,76.46
2019-05-26T06:47:12.379Z,76.27
2019-05-26T06:48:12.406Z,75.89
2019-05-26T06:49:12.417Z,75.31
2019-05-26T06:50:12.446Z,75.22
2019-05-26T06:51:12.466Z,74.93
2019-05-26T06:52:12.487Z,75.60
2019-05-26T06:53:12.521Z,75.22
2019-05-26T06:54:12.542Z,75.12
2019-05-26T06:55:12.561Z,75.02
2019-05-26T06:56:12.585Z,75.16
2019-05-26T06:57:12.627Z,75.45
2019-05-26T06:58:12.636Z,74.40
2019-05-26T06:59:12.660Z,74.58
2019-05-26T07:00:12.690Z,74.01
2019-05-26T07:01:12.706Z,73.05
2019-05-26T07:02:12.743Z,73.82
2019-05-26T07:03:12.753Z,73.05
2019-05-26T07:04:12.798Z,72.96
2019-05-26T07:05:12.824Z,72.77
2019-05-26T07:06:12.839Z,73.34
2019-05-26T07:07:12.856Z,72.90
2019-05-26T07:08:12.899Z,72.86
2019-05-26T07:09:12.916Z,73.05
2019-05-26T07:10:12.927Z,73.38
2019-05-26T07:11:12.958Z,72.32
2019-05-26T07:12:12.977Z,72.52
2019-05-26T07:13:13.017Z,71.84
2019-05-26T07:14:13.035Z,72.23
2019-05-26T07:15:13.062Z,71.08
2019-05-26T07:16:13.099Z,71.37
2019-05-26T07:17:13.102Z,71.37
2019-05-26T07:18:13.133Z,71.31
2019-05-26T07:19:13.148Z,71.37
2019-05-26T07:20:13.283Z,71.56
2019-05-26T07:21:13.198Z,71.37
2019-05-26T07:22:13.234Z,71.66
2019-05-26T07:23:13.433Z,71.94
2019-05-26T07:24:13.275Z,71.75
2019-05-26T07:25:13.314Z,71.50
2019-05-26T07:26:13.403Z,71.27
2019-05-26T07:27:13.355Z,70.89
2019-05-26T07:28:13.395Z,70.89
2019-05-26T07:29:13.396Z,70.73
2019-05-26T07:30:13.421Z,70.92
2019-05-26T07:31:13.444Z,71.02
2019-05-26T07:32:13.570Z,70.73
2019-05-26T07:33:13.519Z,71.53
2019-05-26T07:34:13.527Z,70.48
2019-05-26T07:35:13.550Z,70.00
2019-05-26T07:36:13.569Z,69.52
2019-05-26T07:37:13.673Z,69.90
2019-05-26T07:38:13.617Z,69.23
2019-05-26T07:39:13.647Z,69.52
2019-05-26T07:40:13.669Z,70.09
2019-05-26T07:41:13.694Z,69.33
2019-05-26T07:42:13.737Z,68.75
2019-05-26T07:43:13.745Z,68.46
2019-05-26T07:44:13.765Z,68.75
2019-05-26T07:45:13.787Z,68.46
2019-05-26T07:46:13.822Z,68.85
2019-05-26T07:47:13.841Z,68.56
2019-05-26T07:48:13.864Z,68.56
2019-05-26T07:49:13.890Z,68.37
2019-05-26T07:50:13.919Z,68.37
2019-05-26T07:51:13.972Z,68.56
2019-05-26T07:52:13.964Z,68.66
2019-05-26T07:53:13.991Z,68.46
2019-05-26T07:54:25.180Z,68.75
2019-05-26T07:55:14.041Z,67.69
2019-05-26T07:56:14.065Z,67.79
2019-05-26T07:57:14.097Z,67.60
2019-05-26T07:58:14.116Z,68.08
2019-05-26T07:59:14.143Z,67.89
2019-05-26T08:00:14.170Z,68.18
2019-05-26T08:01:14.194Z,67.44
2019-05-26T08:02:14.222Z,67.16
2019-05-26T08:03:14.245Z,67.44
2019-05-26T08:04:14.268Z,67.54
2019-05-26T08:05:14.298Z,67.06
2019-05-26T08:06:14.323Z,67.63
2019-05-26T08:07:14.338Z,67.63
2019-05-26T08:08:14.364Z,68.12
2019-05-26T08:09:14.396Z,67.35
2019-05-26T08:10:14.415Z,67.35
2019-05-26T08:11:14.444Z,67.25
2019-05-26T08:12:25.820Z,67.06
2019-05-26T08:13:14.508Z,67.44
2019-05-26T08:14:14.523Z,67.73
2019-05-26T08:15:14.542Z,67.96
2019-05-26T08:16:14.578Z,66.67
2019-05-26T08:17:14.592Z,66.49
2019-05-26T08:18:14.614Z,67.63
2019-05-26T08:19:14.640Z,67.63
2019-05-26T08:20:14.668Z,67.25
2019-05-26T08:21:14.700Z,67.25
2019-05-26T08:22:14.727Z,67.44
2019-05-26T08:23:14.750Z,67.73
2019-05-26T08:24:14.768Z,67.57
2019-05-26T08:25:14.802Z,66.90
2019-05-26T08:26:14.835Z,66.80
2019-05-26T08:27:14.862Z,66.61
2019-05-26T08:28:14.872Z,66.23
2019-05-26T08:29:14.900Z,66.42
2019-05-26T08:30:14.919Z,66.52
2019-05-26T08:31:14.946Z,66.23
2019-05-26T08:32:15.229Z,66.13
2019-05-26T08:33:15.003Z,65.75
2019-05-26T08:34:15.033Z,65.84
2019-05-26T08:35:15.060Z,64.98
2019-05-26T08:36:15.070Z,65.27
2019-05-26T08:37:15.121Z,65.69
2019-05-26T08:38:15.122Z,66.07
2019-05-26T08:39:15.157Z,65.27
2019-05-26T08:40:15.180Z,65.20
2019-05-26T08:41:15.200Z,64.89
2019-05-26T08:42:26.822Z,64.59
2019-05-26T08:43:15.254Z,63.92
2019-05-26T08:44:15.288Z,64.15
2019-05-26T08:45:15.300Z,64.43
2019-05-26T08:46:15.421Z,64.15
2019-05-26T08:47:15.352Z,63.28
2019-05-26T08:48:15.402Z,63.76
2019-05-26T08:49:15.416Z,64.40
2019-05-26T08:50:15.435Z,64.43
2019-05-26T08:51:15.464Z,63.67
2019-05-26T08:52:15.482Z,63.96
2019-05-26T08:53:15.510Z,63.76
2019-05-26T08:54:15.532Z,63.38
2019-05-26T08:55:15.552Z,63.86
2019-05-26T08:56:15.576Z,63.28
2019-05-26T08:57:15.612Z,64.15
2019-05-26T08:58:15.667Z,64.05
2019-05-26T08:59:15.675Z,63.38
2019-05-26T09:00:15.701Z,62.99
2019-05-26T09:01:15.705Z,63.60
2019-05-26T09:02:15.731Z,63.38
2019-05-26T09:03:15.855Z,63.51
2019-05-26T09:04:16.075Z,63.22
2019-05-26T09:05:16.018Z,63.70
2019-05-26T09:06:15.836Z,62.64
2019-05-26T09:07:15.896Z,62.55
2019-05-26T09:08:16.004Z,62.26
2019-05-26T09:09:15.911Z,62.26
2019-05-26T09:10:15.974Z,62.16
2019-05-26T09:11:15.973Z,62.35
2019-05-26T09:12:15.996Z,63.02
2019-05-26T09:13:16.042Z,63.60
2019-05-26T09:14:16.050Z,62.35
2019-05-26T09:15:16.064Z,61.78
2019-05-26T09:16:16.107Z,62.38
2019-05-26T09:17:16.121Z,62.58
2019-05-26T09:18:16.153Z,61.81
2019-05-26T09:19:16.185Z,61.43
2019-05-26T09:20:16.195Z,61.81
2019-05-26T09:21:16.228Z,61.14
2019-05-26T09:22:16.283Z,60.66
2019-05-26T09:23:16.278Z,61.23
2019-05-26T09:24:16.305Z,62.23
2019-05-26T09:25:16.329Z,60.59
2019-05-26T09:26:16.357Z,60.66
2019-05-26T09:27:16.381Z,60.85
2019-05-26T09:28:16.403Z,61.81
2019-05-26T09:29:16.426Z,61.26
2019-05-26T09:30:16.459Z,60.59
2019-05-26T09:31:16.475Z,60.42
2019-05-26T09:32:16.521Z,59.15
2019-05-26T09:33:16.563Z,60.01
2019-05-26T09:34:16.562Z,60.21
2019-05-26T09:35:16.587Z,60.01
2019-05-26T09:36:16.736Z,58.76
2019-05-26T09:37:16.640Z,58.47
2019-05-26T09:38:16.682Z,58.95
2019-05-26T09:39:16.691Z,58.67
2019-05-26T09:41:16.773Z,58.86
2019-05-26T09:42:16.786Z,59.24
2019-05-26T09:43:16.947Z,58.18
2019-05-26T09:44:16.827Z,57.32
2019-05-26T09:45:16.855Z,57.92
2019-05-26T09:46:16.887Z,57.25
2019-05-26T09:47:16.914Z,58.02
2019-05-26T09:49:16.957Z,56.77
2019-05-26T09:50:16.977Z,56.67
2019-05-26T09:51:16.999Z,57.64
2019-05-26T09:52:17.054Z,56.80
2019-05-26T09:53:17.052Z,56.29
2019-05-26T09:54:17.100Z,56.00
2019-05-26T09:55:17.134Z,56.00
2019-05-26T09:56:17.234Z,56.00
2019-05-26T09:57:17.189Z,56.87
2019-05-26T09:58:17.236Z,56.77
2019-05-26T09:59:17.239Z,56.67
2019-05-26T10:00:17.317Z,56.73
2019-05-26T10:01:17.270Z,55.00
2019-05-26T10:02:17.295Z,54.90
2019-05-26T10:03:17.330Z,55.07
2019-05-26T10:04:17.354Z,54.35
2019-05-26T10:05:17.386Z,53.61
2019-05-26T10:06:17.410Z,51.97
2019-05-26T10:07:17.421Z,51.80
2019-05-26T10:08:17.463Z,50.74
2019-05-26T10:09:17.476Z,50.84
2019-05-26T10:10:17.520Z,50.86
2019-05-26T10:11:18.610Z,51.58
2019-05-26T10:12:17.582Z,52.97
2019-05-26T10:13:30.811Z,53.36
2019-05-26T10:14:17.774Z,53.58
2019-05-26T10:15:17.640Z,53.13
2019-05-26T10:16:17.675Z,52.19
2019-05-26T10:17:17.700Z,51.97
2019-05-26T10:18:17.741Z,52.25
2019-05-26T10:19:17.814Z,52.35
2019-05-26T10:20:17.778Z,51.87
2019-05-26T10:21:17.811Z,51.10
2019-05-26T10:22:17.836Z,51.58
2019-05-26T10:23:17.930Z,52.09
2019-05-26T10:24:17.892Z,51.68
2019-05-26T10:25:17.922Z,53.00
2019-05-26T10:26:17.944Z,53.67
2019-05-26T10:27:18.081Z,54.22
2019-05-26T10:28:18.036Z,54.52
2019-05-26T10:29:18.044Z,54.42
2019-05-26T10:30:18.089Z,53.94
2019-05-26T10:31:18.086Z,53.67
2019-05-26T10:32:18.115Z,53.09
2019-05-26T10:33:18.149Z,52.87
2019-05-26T10:34:19.110Z,54.03
2019-05-26T10:35:18.746Z,54.49
2019-05-26T10:36:18.257Z,54.32
2019-05-26T10:38:18.441Z,55.57
2019-05-26T10:39:18.547Z,54.32
2019-05-26T10:40:18.376Z,53.96
2019-05-26T10:41:18.422Z,53.58
2019-05-26T10:42:18.450Z,53.87
2019-05-26T10:43:18.480Z,53.55
2019-05-26T10:44:39.508Z,53.00
2019-05-26T10:45:18.524Z,53.00
2019-05-26T10:46:18.557Z,53.19
2019-05-26T10:47:18.574Z,52.52
2019-05-26T10:48:18.634Z,53.00
2019-05-26T10:49:18.667Z,53.48
2019-05-26T10:50:39.874Z,53.39
2019-05-26T10:51:18.825Z,53.39
2019-05-26T10:52:19.077Z,53.19
2019-05-26T10:53:18.787Z,53.13
2019-05-26T10:54:18.773Z,52.73
2019-05-26T10:55:18.803Z,53.00
2019-05-26T10:56:39.883Z,52.64
2019-05-26T10:57:18.906Z,51.65
2019-05-26T11:00:00.896Z,51.87
2019-05-26T11:01:00.903Z,51.97
2019-05-26T11:02:00.957Z,51.97
2019-05-26T11:03:21.975Z,52.35
2019-05-26T11:04:00.965Z,51.51
2019-05-26T11:05:01.058Z,51.03
2019-05-26T11:06:01.399Z,50.76
2019-05-26T11:07:01.061Z,50.26
2019-05-26T11:08:01.089Z,51.03
2019-05-26T11:09:22.131Z,50.74
2019-05-26T11:10:01.285Z,51.00
2019-05-26T11:11:01.163Z,51.46
2019-05-26T11:12:01.233Z,51.84
2019-05-26T11:15:08.866Z,52.81
2019-05-26T11:16:29.934Z,52.61
2019-05-26T11:17:08.938Z,52.91
2019-05-26T11:18:08.945Z,52.91
2019-05-26T11:19:09.013Z,52.93
2019-05-26T11:20:09.002Z,52.55
2019-05-26T11:21:12.243Z,52.16
2019-05-26T11:22:30.117Z,52.25
2019-05-26T11:23:09.085Z,52.06
2019-05-26T11:27:10.868Z,51.97
2019-05-26T11:28:05.886Z,52.83
2019-05-26T11:29:05.929Z,52.28
2019-05-26T11:30:26.967Z,52.09
2019-05-26T11:31:05.982Z,52.06
2019-05-26T11:32:06.016Z,51.87
2019-05-26T11:33:06.104Z,51.94
2019-05-26T11:34:06.063Z,52.52
2019-05-26T11:35:06.081Z,53.00
2019-05-26T11:36:27.148Z,53.48
2019-05-26T11:37:06.159Z,53.48
2019-05-26T11:38:06.168Z,53.65
2019-05-26T11:39:06.199Z,53.67
2019-05-26T11:40:06.219Z,53.39
2019-05-26T11:41:06.294Z,53.19
2019-05-26T11:42:27.346Z,53.51
2019-05-26T11:43:16.333Z,53.13
2019-05-26T11:44:17.596Z,52.64
2019-05-26T11:45:06.371Z,52.06
2019-05-26T11:46:06.403Z,54.09
2019-05-26T11:47:06.415Z,53.03
2019-05-26T11:48:27.463Z,52.64
2019-05-26T11:49:06.667Z,51.87
2019-05-26T11:50:06.499Z,51.39
2019-05-26T11:51:06.532Z,51.29
2019-05-26T11:52:06.608Z,51.77
2019-05-26T11:53:06.582Z,52.16
2019-05-26T11:54:27.621Z,52.06
2019-05-26T11:55:06.622Z,51.00
2019-05-26T11:56:06.675Z,50.42
2019-05-26T11:57:06.797Z,50.71
2019-05-26T11:58:06.710Z,50.90
2019-05-26T11:59:06.784Z,51.10
2019-05-26T12:00:27.801Z,51.29
2019-05-26T12:01:06.796Z,51.77
2019-05-26T12:02:06.858Z,52.06
2019-05-26T12:03:06.841Z,52.06
2019-05-26T12:04:06.880Z,51.58
2019-05-26T12:05:06.908Z,52.06
2019-05-26T12:06:27.954Z,52.55
2019-05-26T12:07:06.972Z,51.94
2019-05-26T12:08:07.040Z,51.94
2019-05-26T12:09:07.042Z,52.71
2019-05-26T12:10:07.066Z,53.48
2019-05-26T12:11:07.076Z,53.29
2019-05-26T12:12:28.120Z,52.91
2019-05-26T12:13:07.119Z,52.71
2019-05-26T12:14:07.154Z,52.93
2019-05-26T12:15:07.205Z,53.31
2019-05-26T12:16:07.211Z,52.25
2019-05-26T12:17:07.252Z,51.87
2019-05-26T12:18:28.290Z,51.58
2019-05-26T12:19:07.407Z,51.87
2019-05-26T12:20:07.332Z,51.87
2019-05-26T12:21:07.339Z,52.06
2019-05-26T12:22:07.722Z,51.29
2019-05-26T12:23:07.396Z,51.68
2019-05-26T12:24:28.459Z,51.48
2019-05-26T12:25:07.483Z,51.58
2019-05-26T12:26:07.477Z,51.87
2019-05-26T12:27:07.506Z,50.90
2019-05-26T12:28:07.524Z,51.29
2019-05-26T12:29:07.569Z,51.77
2019-05-26T12:30:28.692Z,51.48
2019-05-26T12:31:07.628Z,51.70
2019-05-26T12:32:07.649Z,51.77
2019-05-26T12:33:07.720Z,50.90
2019-05-26T12:34:07.705Z,51.20
2019-05-26T12:35:07.732Z,51.03
2019-05-26T12:36:28.774Z,50.35
2019-05-26T12:37:07.790Z,50.84
2019-05-26T12:38:07.811Z,50.74
2019-05-26T12:39:07.838Z,50.06
2019-05-26T12:40:07.855Z,50.26
2019-05-26T12:41:07.889Z,50.71
2019-05-26T12:42:28.929Z,50.52
2019-05-26T12:43:07.950Z,50.90
2019-05-26T12:44:10.940Z,51.29
2019-05-26T12:45:07.997Z,51.87
2019-05-26T12:46:08.019Z,50.90
2019-05-26T12:47:08.048Z,51.68
2019-05-26T12:48:29.095Z,50.90
2019-05-26T12:49:08.096Z,50.71
2019-05-26T12:50:08.163Z,50.62
2019-05-26T12:51:08.185Z,50.71
2019-05-26T12:52:08.224Z,50.88
2019-05-26T12:53:08.216Z,51.07
2019-05-26T12:54:29.255Z,51.00
2019-05-26T12:55:09.742Z,51.75
2019-05-26T12:56:08.297Z,51.58
2019-05-26T12:57:08.316Z,51.87
2019-05-26T12:58:08.354Z,51.65
2019-05-26T12:59:08.409Z,51.58
2019-05-26T13:00:47.082Z,50.81
2019-05-26T13:01:08.437Z,51.58
2019-05-26T13:02:08.469Z,52.06